createdAt,value
2023-02-11T00:00:40.846Z,29.10
2023-02-11T00:03:08.209Z,29.13
2023-02-11T00:05:36.099Z,26.10
2023-02-11T00:08:03.569Z,26.80
2023-02-11T00:10:30.263Z,28.05
2023-02-11T00:12:56.787Z,25.95
2023-02-11T00:15:23.930Z,24.15
2023-02-11T00:17:50.630Z,29.52
2023-02-11T00:20:17.966Z,34.30
2023-02-11T00:22:45.297Z,32.03
2023-02-11T00:25:12.374Z,32.13
2023-02-11T00:27:41.271Z,29.95
2023-02-11T00:30:08.491Z,31.60
2023-02-11T00:32:36.927Z,31.83
2023-02-11T00:35:03.569Z,29.60
2023-02-11T00:37:30.107Z,31.35
2023-02-11T00:39:56.685Z,34.53
2023-02-11T00:42:23.173Z,34.75
2023-02-11T00:44:50.221Z,36.05
2023-02-11T00:47:17.039Z,33.45
2023-02-11T00:49:43.857Z,29.55
2023-02-11T00:52:10.809Z,32.88
2023-02-11T00:54:37.363Z,33.00
2023-02-11T00:57:03.972Z,30.33
2023-02-11T00:59:30.528Z,31.40
2023-02-11T01:01:57.155Z,27.08
2023-02-11T01:04:24.106Z,33.15
2023-02-11T01:06:50.664Z,32.20
2023-02-11T01:09:17.325Z,34.95
2023-02-11T01:11:44.169Z,36.97
2023-02-11T01:14:10.848Z,32.20
2023-02-11T01:16:38.001Z,30.58
2023-02-11T01:19:04.572Z,30.63
2023-02-11T01:21:31.295Z,28.17
2023-02-11T01:23:57.714Z,27.50
2023-02-11T01:26:24.330Z,34.05
2023-02-11T01:28:50.986Z,34.08
2023-02-11T01:31:17.435Z,26.27
2023-02-11T01:33:44.487Z,27.42
2023-02-11T01:36:11.962Z,33.85
2023-02-11T01:38:40.779Z,31.80
2023-02-11T01:41:10.299Z,31.60
2023-02-11T01:43:39.806Z,29.17
2023-02-11T01:46:32.885Z,25.63
2023-02-11T01:49:10.835Z,27.20
2023-02-11T01:51:41.191Z,25.88
2023-02-11T01:54:28.619Z,31.42
2023-02-11T01:57:17.393Z,29.85
2023-02-11T01:59:48.399Z,31.98
2023-02-11T02:02:19.776Z,32.55
2023-02-11T02:04:53.537Z,32.25
2023-02-11T02:07:28.728Z,29.35
2023-02-11T02:10:01.730Z,27.77
2023-02-11T02:12:28.211Z,25.88
2023-02-11T02:15:31.473Z,32.55
2023-02-11T02:20:36.337Z,33.00
2023-02-11T02:23:21.062Z,35.60
2023-02-11T02:26:04.561Z,28.58
2023-02-11T02:28:48.452Z,33.42
2023-02-11T02:31:36.450Z,43.22
2023-02-11T02:34:09.622Z,29.73
2023-02-11T02:39:31.809Z,30.02
2023-02-11T02:41:58.461Z,25.05
2023-02-11T02:44:25.512Z,31.67
2023-02-11T02:49:18.626Z,24.65
2023-02-11T02:52:07.094Z,29.27
2023-02-11T02:54:33.849Z,29.30
2023-02-11T02:57:32.794Z,24.67
2023-02-11T03:00:29.727Z,26.33
2023-02-11T03:03:38.249Z,24.52
2023-02-11T03:06:14.164Z,28.77
2023-02-11T03:08:47.141Z,24.73
2023-02-11T03:11:16.982Z,26.23
2023-02-11T03:13:46.310Z,26.42
2023-02-11T03:16:38.961Z,31.08
2023-02-11T03:19:12.571Z,33.45
2023-02-11T03:21:42.960Z,28.45
2023-02-11T03:24:16.773Z,30.42
2023-02-11T03:26:49.611Z,27.20
2023-02-11T03:29:51.451Z,26.13
2023-02-11T03:32:32.692Z,26.08
2023-02-11T03:35:10.350Z,27.27
2023-02-11T03:37:53.079Z,23.92
2023-02-11T03:40:26.766Z,28.20
2023-02-11T03:43:00.208Z,24.48
2023-02-11T03:45:28.521Z,26.00
2023-02-11T03:48:00.023Z,28.63
2023-02-11T03:50:31.111Z,34.95
2023-02-11T03:53:01.893Z,38.90
2023-02-11T03:55:30.664Z,28.75
2023-02-11T03:57:57.476Z,34.38
2023-02-11T04:00:32.480Z,33.42
2023-02-11T04:03:01.295Z,29.40
2023-02-11T04:05:28.197Z,24.17
2023-02-11T04:07:54.771Z,27.95
2023-02-11T04:10:21.377Z,30.67
2023-02-11T04:12:47.989Z,33.63
2023-02-11T04:15:14.765Z,26.92
2023-02-11T04:17:42.065Z,26.77
2023-02-11T04:20:09.230Z,33.42
2023-02-11T04:22:36.387Z,26.05
2023-02-11T04:25:04.310Z,30.27
2023-02-11T04:27:31.508Z,29.67
2023-02-11T04:29:57.883Z,28.55
2023-02-11T04:32:24.963Z,32.38
2023-02-11T04:34:51.929Z,27.55
2023-02-11T04:37:18.388Z,30.40
2023-02-11T04:39:45.227Z,32.70
2023-02-11T04:44:39.669Z,27.10
2023-02-11T04:47:06.229Z,26.08
2023-02-11T04:49:32.648Z,29.85
2023-02-11T04:51:59.397Z,28.00
2023-02-11T04:54:25.928Z,29.98
2023-02-11T04:56:52.689Z,37.58
2023-02-11T04:59:19.020Z,31.25
2023-02-11T05:01:45.867Z,33.03
2023-02-11T05:04:12.543Z,32.35
2023-02-11T05:06:39.932Z,28.75
2023-02-11T05:09:06.337Z,35.65
2023-02-11T05:11:32.901Z,32.42
2023-02-11T05:13:59.989Z,31.58
2023-02-11T05:16:27.019Z,35.28
2023-02-11T05:18:55.508Z,29.20
2023-02-11T05:21:22.887Z,32.63
2023-02-11T05:23:50.247Z,37.30
2023-02-11T05:26:17.108Z,28.98
2023-02-11T05:28:44.841Z,33.50
2023-02-11T05:31:12.366Z,32.53
2023-02-11T05:33:39.050Z,28.83
2023-02-11T05:36:09.276Z,28.90
2023-02-11T05:38:36.345Z,29.95
2023-02-11T05:41:04.724Z,28.48
2023-02-11T05:43:31.595Z,26.13
2023-02-11T05:45:58.508Z,29.00
2023-02-11T05:48:24.992Z,23.17
2023-02-11T05:50:51.453Z,22.40
2023-02-11T05:53:18.019Z,27.67
2023-02-11T05:55:44.962Z,30.73
2023-02-11T05:58:11.355Z,29.17
2023-02-11T06:00:38.520Z,26.58
2023-02-11T06:03:05.666Z,25.38
2023-02-11T06:05:32.400Z,26.08
2023-02-11T06:07:59.434Z,22.45
2023-02-11T06:10:26.690Z,22.67
2023-02-11T06:15:20.050Z,21.77
2023-02-11T06:17:46.749Z,22.92
2023-02-11T06:20:13.393Z,24.02
2023-02-11T06:22:40.593Z,24.02
2023-02-11T06:25:07.184Z,24.90
2023-02-11T06:27:33.784Z,24.60
2023-02-11T06:30:01.451Z,21.52
2023-02-11T06:32:43.981Z,25.17
2023-02-11T06:35:12.713Z,28.38
2023-02-11T06:37:40.823Z,26.50
2023-02-11T06:40:07.566Z,27.90
2023-02-11T06:42:35.980Z,28.38
2023-02-11T06:45:05.867Z,25.40
2023-02-11T06:47:33.135Z,28.73
2023-02-11T06:49:59.546Z,27.70
2023-02-11T06:52:26.616Z,25.88
2023-02-11T06:54:53.261Z,29.17
2023-02-11T06:57:19.758Z,27.25
2023-02-11T06:59:46.312Z,30.35
2023-02-11T07:02:12.844Z,27.08
2023-02-11T07:04:39.978Z,32.33
2023-02-11T07:07:06.528Z,29.25
2023-02-11T07:09:33.551Z,28.80
2023-02-11T07:12:00.154Z,31.98
2023-02-11T07:14:27.189Z,30.38
2023-02-11T07:16:53.994Z,28.48
2023-02-11T07:19:20.390Z,28.02
2023-02-11T07:21:48.497Z,27.70
2023-02-11T07:24:15.241Z,27.90
2023-02-11T07:26:41.756Z,31.30
2023-02-11T07:29:08.193Z,31.13
2023-02-11T07:31:34.699Z,30.70
2023-02-11T07:34:02.114Z,26.60
2023-02-11T07:36:31.691Z,28.60
2023-02-11T07:38:58.938Z,27.15
2023-02-11T07:41:26.082Z,29.33
2023-02-11T07:43:53.036Z,29.48
2023-02-11T07:46:22.152Z,30.80
2023-02-11T07:48:48.863Z,31.92
2023-02-11T07:51:20.813Z,29.60
2023-02-11T07:53:49.344Z,26.98
2023-02-11T07:56:17.262Z,28.73
2023-02-11T07:58:44.564Z,26.13
2023-02-11T08:01:15.441Z,30.73
2023-02-11T08:03:43.177Z,24.10
2023-02-11T08:06:16.504Z,28.77
2023-02-11T08:08:44.047Z,27.65
2023-02-11T08:11:16.917Z,28.75
2023-02-11T08:13:44.251Z,24.15
2023-02-11T08:16:24.195Z,27.67
2023-02-11T08:18:51.682Z,28.33
2023-02-11T08:21:19.326Z,31.10
2023-02-11T08:23:46.886Z,30.08
2023-02-11T08:26:16.579Z,34.38
2023-02-11T08:28:46.369Z,32.72
2023-02-11T08:31:25.230Z,28.48
2023-02-11T08:33:53.179Z,27.73
2023-02-11T08:36:25.274Z,29.63
2023-02-11T08:38:57.161Z,27.17
2023-02-11T08:41:29.760Z,27.30
2023-02-11T08:43:56.368Z,30.73
2023-02-11T08:46:23.053Z,29.25
2023-02-11T08:48:50.182Z,30.05
2023-02-11T08:51:28.539Z,30.55
2023-02-11T08:53:55.835Z,31.38
2023-02-11T08:56:24.815Z,30.13
2023-02-11T08:58:52.754Z,31.33
2023-02-11T09:01:24.989Z,28.85
2023-02-11T09:03:52.571Z,28.25
2023-02-11T09:08:49.362Z,29.35
2023-02-11T09:11:18.840Z,28.90
2023-02-11T09:13:46.049Z,28.58
2023-02-11T09:16:26.231Z,30.25
2023-02-11T09:18:53.495Z,28.48
2023-02-11T09:21:20.269Z,26.35
2023-02-11T09:23:47.888Z,28.80
2023-02-11T09:26:18.587Z,29.13
2023-02-11T09:28:45.790Z,31.98
2023-02-11T09:31:16.404Z,27.85
2023-02-11T09:33:47.891Z,29.33
2023-02-11T09:36:32.210Z,33.08
2023-02-11T09:39:00.826Z,33.33
2023-02-11T09:41:41.352Z,29.27
2023-02-11T09:44:17.998Z,30.02
2023-02-11T09:46:53.091Z,30.40
2023-02-11T09:49:26.319Z,25.70
2023-02-11T09:52:54.130Z,28.63
2023-02-11T09:55:26.786Z,29.23
2023-02-11T09:57:56.017Z,28.30
2023-02-11T10:00:28.489Z,27.80
2023-02-11T10:03:03.815Z,34.50
2023-02-11T10:05:43.059Z,35.88
2023-02-11T10:08:25.757Z,32.17
2023-02-11T10:11:02.929Z,37.90
2023-02-11T10:13:42.690Z,36.20
2023-02-11T10:16:41.888Z,32.30
2023-02-11T10:19:28.036Z,30.45
2023-02-11T10:22:13.267Z,29.92
2023-02-11T10:24:55.344Z,35.38
2023-02-11T10:27:30.524Z,32.28
2023-02-11T10:30:16.434Z,30.38
2023-02-11T10:32:48.522Z,32.53
2023-02-11T10:35:21.554Z,27.38
2023-02-11T10:37:49.054Z,31.55
2023-02-11T10:40:22.225Z,29.98
2023-02-11T10:42:55.105Z,34.55
2023-02-11T10:45:31.958Z,30.75
2023-02-11T10:48:00.650Z,34.25
2023-02-11T10:50:30.214Z,31.77
2023-02-11T10:53:15.427Z,30.48
2023-02-11T10:55:51.085Z,32.78
2023-02-11T10:58:25.513Z,31.13
2023-02-11T11:00:55.066Z,34.00
2023-02-11T11:03:25.261Z,28.38
2023-02-11T11:05:59.731Z,30.95
2023-02-11T11:08:43.509Z,29.92
2023-02-11T11:11:13.183Z,30.23
2023-02-11T11:13:58.053Z,35.28
2023-02-11T11:16:35.512Z,30.27
2023-02-11T11:19:07.776Z,29.17
2023-02-11T11:21:43.340Z,27.35
2023-02-11T11:24:31.168Z,32.85
2023-02-11T11:27:03.634Z,30.38
2023-02-11T11:29:35.429Z,24.88
2023-02-11T11:32:05.775Z,30.70
2023-02-11T11:34:40.443Z,29.45
2023-02-11T11:37:20.238Z,28.38
2023-02-11T11:39:57.679Z,32.50
2023-02-11T11:42:28.714Z,27.17
2023-02-11T11:45:23.096Z,28.27
2023-02-11T11:47:59.662Z,29.33
2023-02-11T11:50:29.144Z,27.52
2023-02-11T11:53:04.877Z,29.15
2023-02-11T11:55:37.868Z,29.73
2023-02-11T11:58:10.501Z,27.65
2023-02-11T12:00:54.237Z,29.40
2023-02-11T12:03:56.392Z,29.50
2023-02-11T12:06:48.115Z,29.00
2023-02-11T12:09:25.801Z,27.10
2023-02-11T12:12:11.419Z,27.67
2023-02-11T12:14:53.729Z,27.65
2023-02-11T12:17:35.259Z,28.02
2023-02-11T12:20:35.353Z,30.13
2023-02-11T12:23:15.124Z,26.58
2023-02-11T12:25:59.027Z,32.28
2023-02-11T12:28:40.248Z,32.97
2023-02-11T12:31:19.849Z,31.02
2023-02-11T12:34:18.704Z,33.05
2023-02-11T12:37:06.243Z,32.65
2023-02-11T12:39:40.407Z,27.70
2023-02-11T12:42:55.679Z,28.05
2023-02-11T12:45:41.468Z,26.50
2023-02-11T12:48:29.042Z,28.90
2023-02-11T12:51:06.885Z,30.98
2023-02-11T12:53:44.147Z,28.38
2023-02-11T12:56:29.170Z,35.08
2023-02-11T12:58:58.866Z,30.35
2023-02-11T13:01:36.539Z,29.00
2023-02-11T13:04:11.863Z,29.63
2023-02-11T13:06:48.945Z,29.83
2023-02-11T13:09:22.497Z,30.50
2023-02-11T13:11:57.699Z,26.23
2023-02-11T13:14:38.953Z,29.17
2023-02-11T13:17:27.332Z,26.90
2023-02-11T13:20:01.364Z,27.67
2023-02-11T13:22:57.575Z,25.70
2023-02-11T13:25:43.371Z,27.77
2023-02-11T13:31:03.023Z,26.58
2023-02-11T13:33:39.335Z,25.88
2023-02-11T13:36:05.972Z,27.55
2023-02-11T13:38:33.029Z,24.15
2023-02-11T13:43:36.194Z,27.95
2023-02-11T13:46:05.785Z,28.48
2023-02-11T13:48:53.833Z,26.85
2023-02-11T13:51:38.935Z,27.05
2023-02-11T13:54:07.526Z,32.53
2023-02-11T13:56:43.961Z,32.72
2023-02-11T13:59:26.267Z,40.78
2023-02-11T14:02:11.938Z,35.67
2023-02-11T14:05:23.530Z,31.63
2023-02-11T14:08:30.136Z,31.73
2023-02-11T14:10:58.969Z,31.70
2023-02-11T14:13:30.711Z,34.35
2023-02-11T14:16:20.382Z,33.75
2023-02-11T14:18:55.683Z,25.20
2023-02-11T14:21:32.211Z,29.60
2023-02-11T14:24:01.870Z,29.55
2023-02-11T14:26:42.538Z,29.15
2023-02-11T14:29:27.419Z,28.75
2023-02-11T14:32:25.984Z,27.50
2023-02-11T14:35:04.293Z,25.17
2023-02-11T14:37:50.762Z,26.33
2023-02-11T14:40:32.195Z,24.75
2023-02-11T14:43:11.562Z,27.98
2023-02-11T14:45:39.051Z,24.02
2023-02-11T14:48:14.784Z,28.45
2023-02-11T14:50:53.937Z,24.20
2023-02-11T14:53:23.936Z,24.25
2023-02-11T14:55:52.802Z,25.08
2023-02-11T14:58:30.621Z,24.73
2023-02-11T15:01:00.952Z,25.13
2023-02-11T15:03:33.437Z,24.15
2023-02-11T15:06:05.556Z,22.10
2023-02-11T15:08:35.969Z,21.67
2023-02-11T15:11:07.910Z,23.95
2023-02-11T15:13:35.041Z,22.05
2023-02-11T15:16:06.849Z,23.45
2023-02-11T15:18:40.594Z,22.73
2023-02-11T15:21:08.897Z,21.20
2023-02-11T15:23:37.136Z,24.83
2023-02-11T15:26:13.067Z,25.10
2023-02-11T15:28:48.851Z,26.15
2023-02-11T15:31:17.361Z,25.98
2023-02-11T15:33:44.437Z,27.17
2023-02-11T15:38:38.673Z,31.05
2023-02-11T15:41:07.356Z,27.50
2023-02-11T15:43:48.011Z,25.77
2023-02-11T15:46:18.681Z,27.15
2023-02-11T15:48:51.658Z,26.00
2023-02-11T15:51:28.616Z,25.85
2023-02-11T15:53:59.238Z,26.23
2023-02-11T15:56:30.592Z,23.73
2023-02-11T15:59:00.678Z,25.73
2023-02-11T16:01:36.745Z,23.05
2023-02-11T16:04:05.264Z,27.92
2023-02-11T16:06:39.994Z,24.23
2023-02-11T16:09:08.524Z,25.20
2023-02-11T16:11:38.385Z,32.95
2023-02-11T16:14:22.809Z,29.10
2023-02-11T16:16:52.812Z,24.30
2023-02-11T16:19:22.971Z,26.10
2023-02-11T16:21:53.374Z,31.38
2023-02-11T16:24:34.093Z,28.55
2023-02-11T16:27:03.917Z,27.10
2023-02-11T16:29:33.343Z,29.33
2023-02-11T16:32:19.417Z,26.55
2023-02-11T16:34:47.460Z,25.60
2023-02-11T16:37:14.457Z,28.25
2023-02-11T16:39:41.573Z,25.50
2023-02-11T16:42:10.904Z,27.13
2023-02-11T16:44:37.780Z,29.15
2023-02-11T16:47:08.199Z,29.65
2023-02-11T16:49:39.997Z,27.85
2023-02-11T16:52:09.179Z,28.38
2023-02-11T16:54:35.648Z,27.50
2023-02-11T16:57:02.529Z,31.67
2023-02-11T16:59:29.668Z,30.20
2023-02-11T17:01:57.369Z,28.38
2023-02-11T17:04:29.885Z,25.90
2023-02-11T17:06:58.705Z,27.45
2023-02-11T17:09:30.337Z,27.73
2023-02-11T17:11:57.914Z,34.83
2023-02-11T17:14:28.608Z,29.00
2023-02-11T17:16:57.030Z,25.30
2023-02-11T17:19:23.854Z,32.53
2023-02-11T17:21:52.342Z,30.98
2023-02-11T17:24:20.560Z,28.67
2023-02-11T17:26:48.092Z,31.70
2023-02-11T17:29:18.303Z,28.77
2023-02-11T17:31:45.324Z,25.35
2023-02-11T17:34:14.631Z,30.50
2023-02-11T17:36:41.382Z,26.33
2023-02-11T17:39:08.626Z,24.70
2023-02-11T17:44:03.529Z,24.33
2023-02-11T17:46:30.227Z,31.25
2023-02-11T17:48:58.748Z,29.23
2023-02-11T17:51:27.991Z,32.42
2023-02-11T17:54:00.020Z,29.08
2023-02-11T17:56:26.807Z,32.08
2023-02-11T17:58:53.818Z,34.10
2023-02-11T18:01:20.557Z,27.67
2023-02-11T18:03:47.636Z,31.25
2023-02-11T18:06:14.540Z,27.50
2023-02-11T18:08:43.060Z,26.73
2023-02-11T18:11:10.831Z,25.63
2023-02-11T18:13:37.475Z,32.10
2023-02-11T18:16:06.128Z,27.77
2023-02-11T18:18:33.828Z,28.42
2023-02-11T18:21:03.878Z,28.60
2023-02-11T18:23:30.580Z,27.75
2023-02-11T18:25:56.991Z,30.40
2023-02-11T18:28:25.884Z,24.95
2023-02-11T18:30:59.463Z,22.55
2023-02-11T18:33:27.360Z,26.33
2023-02-11T18:35:53.996Z,25.38
2023-02-11T18:38:22.352Z,25.52
2023-02-11T18:40:50.415Z,30.38
2023-02-11T18:43:18.796Z,33.45
2023-02-11T18:45:47.123Z,25.70
2023-02-11T18:48:14.132Z,35.35
2023-02-11T18:50:44.461Z,22.73
2023-02-11T18:53:13.331Z,21.45
2023-02-11T18:55:42.676Z,19.23
2023-02-11T18:58:10.867Z,20.77
2023-02-11T19:00:41.182Z,19.13
2023-02-11T19:03:07.904Z,20.42
2023-02-11T19:05:48.327Z,18.98
2023-02-11T19:08:15.514Z,16.02
2023-02-11T19:10:45.102Z,17.42
2023-02-11T19:13:11.970Z,15.90
2023-02-11T19:15:43.363Z,15.85
2023-02-11T19:18:10.775Z,16.17
2023-02-11T19:20:42.486Z,14.10
2023-02-11T19:23:09.268Z,15.45
2023-02-11T19:25:36.069Z,16.10
2023-02-11T19:28:03.806Z,19.17
2023-02-11T19:30:30.544Z,20.05
2023-02-11T19:32:57.927Z,20.98
2023-02-11T19:35:24.848Z,18.08
2023-02-11T19:40:19.174Z,21.35
2023-02-11T19:42:45.702Z,19.60
2023-02-11T19:45:14.404Z,24.83
2023-02-11T19:47:41.233Z,25.00
2023-02-11T19:50:08.541Z,26.67
2023-02-11T19:52:46.165Z,27.52
2023-02-11T19:55:13.011Z,21.33
2023-02-11T19:57:40.028Z,29.27
2023-02-11T20:00:07.443Z,29.42
2023-02-11T20:02:37.797Z,27.88
2023-02-11T20:05:04.960Z,27.95
2023-02-11T20:07:31.381Z,31.05
2023-02-11T20:09:57.984Z,32.25
2023-02-11T20:12:24.370Z,30.88
2023-02-11T20:14:51.071Z,34.08
2023-02-11T20:17:17.529Z,37.35
2023-02-11T20:19:43.995Z,36.42
2023-02-11T20:22:10.358Z,34.17
2023-02-11T20:24:36.822Z,32.80
2023-02-11T20:27:03.326Z,31.55
2023-02-11T20:29:31.696Z,31.13
2023-02-11T20:31:58.439Z,31.75
2023-02-11T20:34:25.280Z,35.53
2023-02-11T20:36:52.385Z,32.72
2023-02-11T20:39:22.130Z,30.00
2023-02-11T20:41:49.525Z,24.08
2023-02-11T20:44:16.411Z,21.83
2023-02-11T20:46:48.224Z,20.98
2023-02-11T20:49:18.696Z,17.35
2023-02-11T20:51:46.106Z,17.35
2023-02-11T20:54:15.978Z,16.45
2023-02-11T20:56:45.516Z,17.23
2023-02-11T20:59:14.056Z,18.92
2023-02-11T21:01:44.167Z,16.58
2023-02-11T21:04:14.383Z,19.13
2023-02-11T21:06:44.689Z,19.42
2023-02-11T21:09:14.011Z,23.88
2023-02-11T21:11:41.244Z,25.42
2023-02-11T21:14:08.188Z,23.27
2023-02-11T21:16:34.904Z,25.65
2023-02-11T21:19:02.889Z,27.55
2023-02-11T21:21:30.045Z,26.60
2023-02-11T21:23:58.364Z,24.08
2023-02-11T21:26:25.390Z,21.67
2023-02-11T21:31:23.251Z,30.42
2023-02-11T21:33:51.147Z,29.63
2023-02-11T21:36:17.862Z,30.50
2023-02-11T21:38:44.330Z,33.47
2023-02-11T21:41:10.751Z,31.88
2023-02-11T21:43:37.566Z,38.00
2023-02-11T21:46:14.890Z,33.22
2023-02-11T21:48:41.955Z,30.55
2023-02-11T21:53:37.909Z,34.80
2023-02-11T21:56:10.182Z,30.77
2023-02-11T21:58:37.854Z,36.08
2023-02-11T22:03:45.509Z,36.97
2023-02-11T22:06:15.184Z,33.70
2023-02-11T22:08:42.883Z,26.95
2023-02-11T22:11:12.546Z,37.45
2023-02-11T22:13:39.969Z,33.50
2023-02-11T22:16:09.525Z,31.38
2023-02-11T22:18:37.247Z,31.90
2023-02-11T22:21:08.014Z,29.15
2023-02-11T22:23:36.016Z,31.38
2023-02-11T22:26:14.924Z,32.28
2023-02-11T22:28:41.454Z,26.33
2023-02-11T22:31:13.411Z,35.72
2023-02-11T22:33:40.420Z,27.88
2023-02-11T22:36:12.315Z,28.77
2023-02-11T22:38:38.737Z,26.15
2023-02-11T22:41:07.842Z,25.00
2023-02-11T22:43:34.874Z,26.05
2023-02-11T22:48:34.157Z,20.70
2023-02-11T22:51:08.565Z,20.33
2023-02-11T22:53:35.501Z,22.35
2023-02-11T22:56:07.347Z,21.77
2023-02-11T22:58:35.472Z,21.27
2023-02-11T23:01:02.858Z,26.50
2023-02-11T23:03:31.319Z,23.10
2023-02-11T23:06:00.817Z,22.70
2023-02-11T23:08:29.876Z,21.17
2023-02-11T23:11:04.262Z,21.60
2023-02-11T23:13:34.730Z,18.23
2023-02-11T23:16:07.318Z,20.08
2023-02-11T23:18:38.581Z,18.38
2023-02-11T23:21:15.683Z,18.40
2023-02-11T23:23:43.208Z,17.63
2023-02-11T23:26:12.607Z,20.40
2023-02-11T23:28:39.675Z,16.08
2023-02-11T23:31:18.105Z,23.60
2023-02-11T23:33:46.687Z,23.38
2023-02-11T23:36:15.116Z,20.90
2023-02-11T23:38:42.302Z,20.67
2023-02-11T23:41:10.088Z,19.65
2023-02-11T23:43:37.480Z,20.08
2023-02-11T23:46:05.006Z,19.08
2023-02-11T23:48:33.831Z,19.65
2023-02-11T23:51:00.570Z,19.45
2023-02-11T23:53:28.081Z,18.55
2023-02-11T23:55:55.037Z,22.02
2023-02-11T23:58:21.977Z,22.95
